N5NC KMCO-TKPK
Flight info
| Callsign | N5NC |
|---|---|
| Flight time | 3h 6m |
| Altitude | 41000 |
| Route | DDANY3 JIPOD DCT VENDS Y185 ACONY Y280 DANDE G633 GABAR |
| Aircraft | C525/L-SDFGRWYZ/LB1 |
Departure
| Time | 2026-05-06 09:24 |
|---|---|
| Airport | Orlando International Airport (KMCO) |
Arrival
| Time | 2026-05-06 12:30 |
|---|---|
| Airport | Robert L. Bradshaw International Airport (TKPK) |
| Time | Latitude | Longitude | Altitude | Speed | Heading |
|---|---|---|---|---|---|
| 2026-05-06 09:09 | 28.43285 | -81.33019 | 90 ft | 0 kts | 360° |
| 2026-05-06 09:19 | 28.43289 | -81.33018 | 90 ft | 2 kts | 13° |
| 2026-05-06 09:19 | 28.43312 | -81.32987 | 90 ft | 7 kts | 58° |
| 2026-05-06 09:19 | 28.43361 | -81.32932 | 89 ft | 10 kts | 15° |
| 2026-05-06 09:19 | 28.43448 | -81.32928 | 89 ft | 14 kts | 359° |
| 2026-05-06 09:20 | 28.43567 | -81.32928 | 89 ft | 18 kts | 358° |
| 2026-05-06 09:20 | 28.43696 | -81.32929 | 89 ft | 17 kts | 359° |
| 2026-05-06 09:20 | 28.43815 | -81.32931 | 89 ft | 16 kts | 1° |
| 2026-05-06 09:20 | 28.43926 | -81.32933 | 89 ft | 16 kts | 359° |
| 2026-05-06 09:21 | 28.44031 | -81.32886 | 89 ft | 17 kts | 28° |
| 2026-05-06 09:21 | 28.44152 | -81.32862 | 89 ft | 18 kts | 358° |
| 2026-05-06 09:21 | 28.44280 | -81.32864 | 89 ft | 17 kts | 359° |
| 2026-05-06 09:21 | 28.44399 | -81.32865 | 89 ft | 17 kts | 359° |
| 2026-05-06 09:22 | 28.44520 | -81.32866 | 89 ft | 16 kts | 0° |
| 2026-05-06 09:22 | 28.44635 | -81.32867 | 89 ft | 16 kts | 358° |
| 2026-05-06 09:22 | 28.44706 | -81.32798 | 89 ft | 15 kts | 80° |
| 2026-05-06 09:22 | 28.44671 | -81.32697 | 89 ft | 15 kts | 175° |
| 2026-05-06 09:23 | 28.44430 | -81.32694 | 89 ft | 62 kts | 180° |
| 2026-05-06 09:23 | 28.43809 | -81.32686 | 92 ft | 112 kts | 179° |
| 2026-05-06 09:23 | 28.42972 | -81.32672 | 339 ft | 126 kts | 179° |
| 2026-05-06 09:23 | 28.42067 | -81.32652 | 663 ft | 139 kts | 178° |
| 2026-05-06 09:24 | 28.41046 | -81.32644 | 1033 ft | 153 kts | 178° |
| 2026-05-06 09:24 | 28.39940 | -81.32553 | 1448 ft | 164 kts | 160° |
| 2026-05-06 09:24 | 28.38980 | -81.31828 | 1872 ft | 174 kts | 137° |
| 2026-05-06 09:24 | 28.38091 | -81.30823 | 2278 ft | 187 kts | 133° |
| 2026-05-06 09:25 | 28.37191 | -81.29718 | 2745 ft | 196 kts | 132° |
| 2026-05-06 09:25 | 28.36247 | -81.28545 | 3252 ft | 204 kts | 131° |
| 2026-05-06 09:25 | 28.35282 | -81.27348 | 3752 ft | 210 kts | 132° |
| 2026-05-06 09:25 | 28.34269 | -81.26111 | 4253 ft | 216 kts | 132° |
| 2026-05-06 09:26 | 28.33227 | -81.24873 | 4747 ft | 221 kts | 132° |
| 2026-05-06 09:26 | 28.32152 | -81.23608 | 5243 ft | 226 kts | 133° |
| 2026-05-06 09:26 | 28.30965 | -81.22407 | 5719 ft | 232 kts | 149° |
| 2026-05-06 09:26 | 28.29544 | -81.21587 | 6206 ft | 233 kts | 142° |
| 2026-05-06 09:27 | 28.28631 | -81.20110 | 6700 ft | 230 kts | 107° |
| 2026-05-06 09:27 | 28.28270 | -81.18356 | 7191 ft | 229 kts | 95° |
| 2026-05-06 09:27 | 28.28087 | -81.16575 | 7673 ft | 229 kts | 91° |
| 2026-05-06 09:27 | 28.27977 | -81.14773 | 8158 ft | 229 kts | 89° |
| 2026-05-06 09:28 | 28.27907 | -81.12978 | 8637 ft | 229 kts | 88° |
| 2026-05-06 09:28 | 28.27863 | -81.11191 | 9114 ft | 228 kts | 86° |
| 2026-05-06 09:28 | 28.27836 | -81.09399 | 9590 ft | 227 kts | 86° |
| 2026-05-06 09:28 | 28.27821 | -81.07636 | 10061 ft | 226 kts | 85° |
| 2026-05-06 09:29 | 28.27816 | -81.05846 | 10498 ft | 226 kts | 85° |
| 2026-05-06 09:29 | 28.27818 | -81.04054 | 10859 ft | 231 kts | 85° |
| 2026-05-06 09:29 | 28.27826 | -81.02228 | 11221 ft | 235 kts | 85° |
| 2026-05-06 09:29 | 28.27837 | -81.00361 | 11580 ft | 239 kts | 85° |
| 2026-05-06 09:30 | 28.27851 | -80.98458 | 11936 ft | 242 kts | 85° |
| 2026-05-06 09:30 | 28.27867 | -80.96536 | 12303 ft | 245 kts | 85° |
| 2026-05-06 09:30 | 28.27884 | -80.94603 | 12657 ft | 248 kts | 85° |
| 2026-05-06 09:30 | 28.27901 | -80.92645 | 13014 ft | 250 kts | 85° |
| 2026-05-06 09:31 | 28.27919 | -80.90666 | 13376 ft | 252 kts | 85° |
| 2026-05-06 09:31 | 28.27938 | -80.88670 | 13734 ft | 254 kts | 85° |
| 2026-05-06 09:31 | 28.27917 | -80.86656 | 14080 ft | 258 kts | 92° |
| 2026-05-06 09:31 | 28.27444 | -80.84683 | 14445 ft | 262 kts | 105° |
| 2026-05-06 09:32 | 28.26791 | -80.82755 | 14783 ft | 263 kts | 108° |
| 2026-05-06 09:32 | 28.26097 | -80.80839 | 15131 ft | 264 kts | 109° |
| 2026-05-06 09:32 | 28.25403 | -80.78941 | 15454 ft | 264 kts | 108° |
| 2026-05-06 09:32 | 28.24698 | -80.77012 | 15763 ft | 264 kts | 108° |
| 2026-05-06 09:33 | 28.24003 | -80.75103 | 16084 ft | 263 kts | 108° |
| 2026-05-06 09:33 | 28.23303 | -80.73177 | 16439 ft | 263 kts | 108° |
| 2026-05-06 09:33 | 28.22614 | -80.71278 | 16781 ft | 262 kts | 108° |
| 2026-05-06 09:33 | 28.21924 | -80.69371 | 17074 ft | 264 kts | 108° |
| 2026-05-06 09:34 | 28.21223 | -80.67429 | 17314 ft | 269 kts | 108° |
| 2026-05-06 09:34 | 28.20538 | -80.65443 | 17558 ft | 274 kts | 106° |
| 2026-05-06 09:34 | 28.19865 | -80.63405 | 17798 ft | 279 kts | 106° |
| 2026-05-06 09:34 | 28.19177 | -80.61305 | 18041 ft | 284 kts | 105° |
| 2026-05-06 09:35 | 28.18492 | -80.59217 | 18279 ft | 288 kts | 106° |
| 2026-05-06 09:35 | 28.17788 | -80.57077 | 18518 ft | 292 kts | 106° |
| 2026-05-06 09:35 | 28.17073 | -80.54907 | 18763 ft | 295 kts | 107° |
| 2026-05-06 09:35 | 28.16353 | -80.52725 | 19000 ft | 299 kts | 106° |
| 2026-05-06 09:36 | 28.15622 | -80.50515 | 19239 ft | 302 kts | 106° |
| 2026-05-06 09:36 | 28.14885 | -80.48287 | 19479 ft | 304 kts | 107° |
| 2026-05-06 09:36 | 28.14135 | -80.46024 | 19726 ft | 307 kts | 106° |
| 2026-05-06 09:36 | 28.13381 | -80.43748 | 19963 ft | 309 kts | 107° |
| 2026-05-06 09:37 | 28.12623 | -80.41464 | 20202 ft | 311 kts | 107° |
| 2026-05-06 09:37 | 28.11863 | -80.39175 | 20431 ft | 312 kts | 107° |
| 2026-05-06 09:37 | 28.11100 | -80.36881 | 20665 ft | 314 kts | 107° |
| 2026-05-06 09:37 | 28.10333 | -80.34573 | 20895 ft | 315 kts | 107° |
| 2026-05-06 09:38 | 28.09555 | -80.32237 | 21126 ft | 316 kts | 107° |
| 2026-05-06 09:38 | 28.08777 | -80.29903 | 21359 ft | 317 kts | 107° |
| 2026-05-06 09:38 | 28.08004 | -80.27594 | 21589 ft | 317 kts | 107° |
| 2026-05-06 09:38 | 28.07217 | -80.25243 | 21819 ft | 317 kts | 107° |
| 2026-05-06 09:39 | 28.06441 | -80.22926 | 22042 ft | 317 kts | 107° |
| 2026-05-06 09:39 | 28.05661 | -80.20598 | 22270 ft | 319 kts | 107° |
| 2026-05-06 09:39 | 28.04874 | -80.18250 | 22500 ft | 320 kts | 107° |
| 2026-05-06 09:39 | 28.04083 | -80.15891 | 22742 ft | 321 kts | 107° |
| 2026-05-06 09:40 | 28.03297 | -80.13550 | 22989 ft | 321 kts | 107° |
| 2026-05-06 09:40 | 28.02493 | -80.11156 | 23239 ft | 322 kts | 107° |
| 2026-05-06 09:40 | 28.00907 | -80.06439 | 23729 ft | 323 kts | 107° |
| 2026-05-06 09:41 | 28.00104 | -80.04050 | 23978 ft | 323 kts | 107° |
| 2026-05-06 09:41 | 27.99312 | -80.01701 | 24229 ft | 324 kts | 107° |
| 2026-05-06 09:41 | 27.98512 | -79.99327 | 24484 ft | 324 kts | 107° |
| 2026-05-06 09:41 | 27.97707 | -79.96941 | 24736 ft | 324 kts | 107° |
| 2026-05-06 09:42 | 27.96901 | -79.94552 | 24990 ft | 324 kts | 106° |
| 2026-05-06 09:42 | 27.96095 | -79.92164 | 25246 ft | 324 kts | 107° |
| 2026-05-06 09:42 | 27.95292 | -79.89786 | 25501 ft | 325 kts | 107° |
| 2026-05-06 09:42 | 27.94483 | -79.87393 | 25761 ft | 326 kts | 106° |
| 2026-05-06 09:43 | 27.93673 | -79.84998 | 26017 ft | 327 kts | 107° |
| 2026-05-06 09:43 | 27.92865 | -79.82609 | 26272 ft | 329 kts | 106° |
| 2026-05-06 09:43 | 27.92045 | -79.80190 | 26532 ft | 329 kts | 106° |
| 2026-05-06 09:43 | 27.91225 | -79.77769 | 26789 ft | 330 kts | 106° |
| 2026-05-06 09:44 | 27.90400 | -79.75339 | 27053 ft | 331 kts | 106° |
| 2026-05-06 09:44 | 27.89582 | -79.72929 | 27305 ft | 331 kts | 106° |
| 2026-05-06 09:44 | 27.88751 | -79.70482 | 27563 ft | 331 kts | 106° |
| 2026-05-06 09:44 | 27.87927 | -79.68058 | 27817 ft | 330 kts | 105° |
| 2026-05-06 09:45 | 27.87109 | -79.65653 | 28074 ft | 331 kts | 106° |
| 2026-05-06 09:45 | 27.86282 | -79.63219 | 28271 ft | 333 kts | 106° |
| 2026-05-06 09:45 | 27.85441 | -79.60751 | 28459 ft | 336 kts | 106° |
| 2026-05-06 09:45 | 27.84608 | -79.58303 | 28643 ft | 339 kts | 105° |
| 2026-05-06 09:46 | 27.83761 | -79.55817 | 28832 ft | 342 kts | 106° |
| 2026-05-06 09:46 | 27.82897 | -79.53284 | 29015 ft | 344 kts | 105° |
| 2026-05-06 09:46 | 27.82041 | -79.50777 | 29193 ft | 347 kts | 106° |
| 2026-05-06 09:46 | 27.81167 | -79.48217 | 29372 ft | 349 kts | 105° |
| 2026-05-06 09:47 | 27.80301 | -79.45686 | 29550 ft | 351 kts | 105° |
| 2026-05-06 09:47 | 27.79417 | -79.43102 | 29677 ft | 354 kts | 105° |
| 2026-05-06 09:47 | 27.78527 | -79.40504 | 29805 ft | 358 kts | 106° |
| 2026-05-06 09:47 | 27.77624 | -79.37867 | 29935 ft | 361 kts | 105° |
| 2026-05-06 09:48 | 27.76718 | -79.35223 | 30066 ft | 364 kts | 105° |
| 2026-05-06 09:48 | 27.75801 | -79.32552 | 30192 ft | 366 kts | 106° |
| 2026-05-06 09:48 | 27.74886 | -79.29889 | 30319 ft | 368 kts | 106° |
| 2026-05-06 09:48 | 27.73950 | -79.27168 | 30447 ft | 370 kts | 106° |
| 2026-05-06 09:49 | 27.73016 | -79.24452 | 30575 ft | 372 kts | 106° |
| 2026-05-06 09:49 | 27.72081 | -79.21738 | 30702 ft | 374 kts | 106° |
| 2026-05-06 09:49 | 27.71143 | -79.19014 | 30829 ft | 375 kts | 106° |
| 2026-05-06 09:49 | 27.70190 | -79.16250 | 30959 ft | 377 kts | 106° |
| 2026-05-06 09:50 | 27.69241 | -79.13500 | 31086 ft | 378 kts | 106° |
| 2026-05-06 09:50 | 27.68295 | -79.10758 | 31215 ft | 380 kts | 106° |
| 2026-05-06 09:50 | 27.67326 | -79.07954 | 31341 ft | 381 kts | 106° |
| 2026-05-06 09:50 | 27.66367 | -79.05180 | 31467 ft | 382 kts | 106° |
| 2026-05-06 09:51 | 27.65396 | -79.02376 | 31596 ft | 383 kts | 106° |
| 2026-05-06 09:51 | 27.64427 | -78.99577 | 31730 ft | 384 kts | 106° |
| 2026-05-06 09:51 | 27.63461 | -78.96790 | 31856 ft | 385 kts | 106° |
| 2026-05-06 09:51 | 27.62489 | -78.93986 | 31983 ft | 386 kts | 106° |
| 2026-05-06 09:52 | 27.61508 | -78.91161 | 32116 ft | 387 kts | 106° |
| 2026-05-06 09:52 | 27.60530 | -78.88345 | 32241 ft | 388 kts | 106° |
| 2026-05-06 09:52 | 27.59548 | -78.85520 | 32372 ft | 388 kts | 105° |
| 2026-05-06 09:52 | 27.58556 | -78.82668 | 32504 ft | 389 kts | 105° |
| 2026-05-06 09:53 | 27.57578 | -78.79861 | 32630 ft | 390 kts | 106° |
| 2026-05-06 09:53 | 27.56583 | -78.77002 | 32762 ft | 390 kts | 106° |
| 2026-05-06 09:53 | 27.55590 | -78.74155 | 32893 ft | 390 kts | 106° |
| 2026-05-06 09:53 | 27.54607 | -78.71337 | 33020 ft | 391 kts | 106° |
| 2026-05-06 09:54 | 27.53607 | -78.68476 | 33155 ft | 391 kts | 106° |
| 2026-05-06 09:54 | 27.52622 | -78.65655 | 33304 ft | 392 kts | 106° |
| 2026-05-06 09:54 | 27.51618 | -78.62786 | 33448 ft | 392 kts | 105° |
| 2026-05-06 09:54 | 27.50617 | -78.59924 | 33594 ft | 392 kts | 105° |
| 2026-05-06 09:55 | 27.49622 | -78.57083 | 33735 ft | 393 kts | 106° |
| 2026-05-06 09:55 | 27.48623 | -78.54233 | 33880 ft | 393 kts | 105° |
| 2026-05-06 09:55 | 27.47617 | -78.51365 | 34023 ft | 393 kts | 105° |
| 2026-05-06 09:55 | 27.46608 | -78.48492 | 34172 ft | 394 kts | 105° |
| 2026-05-06 09:56 | 27.45600 | -78.45622 | 34320 ft | 394 kts | 105° |
| 2026-05-06 09:56 | 27.44591 | -78.42752 | 34464 ft | 395 kts | 105° |
| 2026-05-06 09:56 | 27.43588 | -78.39901 | 34611 ft | 395 kts | 105° |
| 2026-05-06 09:56 | 27.42575 | -78.37026 | 34756 ft | 395 kts | 105° |
| 2026-05-06 09:57 | 27.41565 | -78.34158 | 34901 ft | 396 kts | 105° |
| 2026-05-06 09:57 | 27.40548 | -78.31275 | 35044 ft | 395 kts | 105° |
| 2026-05-06 09:57 | 27.39540 | -78.28417 | 35188 ft | 395 kts | 105° |
| 2026-05-06 09:57 | 27.38531 | -78.25562 | 35334 ft | 395 kts | 105° |
| 2026-05-06 09:58 | 27.37519 | -78.22700 | 35482 ft | 395 kts | 105° |
| 2026-05-06 09:58 | 27.36493 | -78.19800 | 35627 ft | 395 kts | 105° |
| 2026-05-06 09:58 | 27.35481 | -78.16942 | 35775 ft | 395 kts | 105° |
| 2026-05-06 09:58 | 27.34453 | -78.14082 | 35920 ft | 396 kts | 108° |
| 2026-05-06 09:59 | 27.33137 | -78.11362 | 36066 ft | 401 kts | 117° |
| 2026-05-06 09:59 | 27.31636 | -78.08724 | 36214 ft | 401 kts | 118° |
| 2026-05-06 09:59 | 27.30101 | -78.06117 | 36359 ft | 401 kts | 119° |
| 2026-05-06 09:59 | 27.28539 | -78.03482 | 36507 ft | 401 kts | 119° |
| 2026-05-06 10:00 | 27.27006 | -78.00900 | 36651 ft | 401 kts | 119° |
| 2026-05-06 10:00 | 27.25447 | -77.98273 | 36798 ft | 401 kts | 119° |
| 2026-05-06 10:00 | 27.23903 | -77.95669 | 36942 ft | 401 kts | 119° |
| 2026-05-06 10:00 | 27.22362 | -77.93072 | 37091 ft | 400 kts | 118° |
| 2026-05-06 10:01 | 27.20816 | -77.90465 | 37241 ft | 400 kts | 118° |
| 2026-05-06 10:01 | 27.19296 | -77.87901 | 37383 ft | 400 kts | 118° |
| 2026-05-06 10:01 | 27.17737 | -77.85273 | 37531 ft | 400 kts | 118° |
| 2026-05-06 10:01 | 27.16191 | -77.82668 | 37676 ft | 399 kts | 119° |
| 2026-05-06 10:02 | 27.14635 | -77.80048 | 37827 ft | 399 kts | 118° |
| 2026-05-06 10:02 | 27.13099 | -77.77460 | 37973 ft | 399 kts | 118° |
| 2026-05-06 10:02 | 27.11564 | -77.74877 | 38120 ft | 399 kts | 118° |
| 2026-05-06 10:02 | 27.10028 | -77.72294 | 38265 ft | 398 kts | 118° |
| 2026-05-06 10:03 | 27.08480 | -77.69691 | 38415 ft | 398 kts | 118° |
| 2026-05-06 10:03 | 27.06943 | -77.67110 | 38559 ft | 398 kts | 118° |
| 2026-05-06 10:03 | 27.05412 | -77.64538 | 38706 ft | 398 kts | 118° |
| 2026-05-06 10:03 | 27.03867 | -77.61944 | 38853 ft | 397 kts | 118° |
| 2026-05-06 10:04 | 27.02330 | -77.59367 | 39009 ft | 397 kts | 118° |
| 2026-05-06 10:04 | 27.00797 | -77.56795 | 39170 ft | 397 kts | 117° |
| 2026-05-06 10:04 | 26.99285 | -77.54220 | 39351 ft | 396 kts | 117° |
| 2026-05-06 10:04 | 26.97784 | -77.51640 | 39524 ft | 396 kts | 117° |
| 2026-05-06 10:05 | 26.96268 | -77.49031 | 39703 ft | 395 kts | 116° |
| 2026-05-06 10:05 | 26.94772 | -77.46461 | 39875 ft | 395 kts | 117° |
| 2026-05-06 10:05 | 26.93282 | -77.43901 | 40054 ft | 395 kts | 116° |
| 2026-05-06 10:05 | 26.91772 | -77.41312 | 40230 ft | 394 kts | 117° |
| 2026-05-06 10:06 | 26.90273 | -77.38743 | 40410 ft | 393 kts | 117° |
| 2026-05-06 10:06 | 26.88790 | -77.36203 | 40571 ft | 392 kts | 117° |
| 2026-05-06 10:06 | 26.87293 | -77.33642 | 40749 ft | 390 kts | 117° |
| 2026-05-06 10:06 | 26.85794 | -77.31078 | 40926 ft | 388 kts | 117° |
| 2026-05-06 10:07 | 26.82830 | -77.26013 | 41033 ft | 389 kts | 117° |
| 2026-05-06 10:07 | 26.79848 | -77.20921 | 41034 ft | 393 kts | 117° |
| 2026-05-06 10:08 | 26.76828 | -77.15770 | 41019 ft | 397 kts | 117° |
| 2026-05-06 10:08 | 26.73784 | -77.10586 | 41031 ft | 401 kts | 117° |
| 2026-05-06 10:09 | 26.70703 | -77.05346 | 41028 ft | 405 kts | 117° |
| 2026-05-06 10:09 | 26.67600 | -77.00075 | 41031 ft | 410 kts | 117° |
| 2026-05-06 10:10 | 26.64426 | -76.94691 | 41022 ft | 415 kts | 118° |
| 2026-05-06 10:10 | 26.61244 | -76.89299 | 41016 ft | 419 kts | 118° |
| 2026-05-06 10:11 | 26.58015 | -76.83834 | 41027 ft | 423 kts | 117° |
| 2026-05-06 10:11 | 26.54769 | -76.78348 | 41035 ft | 426 kts | 117° |
| 2026-05-06 10:12 | 26.51474 | -76.72784 | 41028 ft | 430 kts | 117° |
| 2026-05-06 10:12 | 26.48161 | -76.67200 | 41017 ft | 434 kts | 117° |
| 2026-05-06 10:13 | 26.44813 | -76.61562 | 41033 ft | 437 kts | 118° |
| 2026-05-06 10:13 | 26.41436 | -76.55881 | 41033 ft | 440 kts | 118° |
| 2026-05-06 10:14 | 26.38052 | -76.50197 | 41032 ft | 443 kts | 117° |
| 2026-05-06 10:14 | 26.34633 | -76.44461 | 41034 ft | 446 kts | 117° |
| 2026-05-06 10:15 | 26.31184 | -76.38681 | 41028 ft | 449 kts | 117° |
| 2026-05-06 10:15 | 26.27735 | -76.32909 | 41030 ft | 451 kts | 118° |
| 2026-05-06 10:16 | 26.24244 | -76.27075 | 41034 ft | 452 kts | 118° |
| 2026-05-06 10:16 | 26.20742 | -76.21231 | 41028 ft | 454 kts | 118° |
| 2026-05-06 10:17 | 26.17209 | -76.15341 | 41021 ft | 455 kts | 118° |
| 2026-05-06 10:17 | 26.13629 | -76.09380 | 41023 ft | 457 kts | 118° |
| 2026-05-06 10:18 | 26.10154 | -76.03602 | 41027 ft | 458 kts | 118° |
| 2026-05-06 10:18 | 26.06521 | -75.97568 | 41039 ft | 459 kts | 117° |
| 2026-05-06 10:19 | 26.02921 | -75.91599 | 41035 ft | 461 kts | 118° |
| 2026-05-06 10:19 | 25.99339 | -75.85664 | 41032 ft | 462 kts | 118° |
| 2026-05-06 10:20 | 25.95761 | -75.79745 | 41035 ft | 463 kts | 117° |
| 2026-05-06 10:20 | 25.92165 | -75.73803 | 41034 ft | 465 kts | 118° |
| 2026-05-06 10:21 | 25.88551 | -75.67841 | 41035 ft | 465 kts | 118° |
| 2026-05-06 10:21 | 25.84952 | -75.61910 | 41035 ft | 465 kts | 118° |
| 2026-05-06 10:22 | 25.81337 | -75.55961 | 41045 ft | 464 kts | 118° |
| 2026-05-06 10:22 | 25.77720 | -75.50015 | 41055 ft | 464 kts | 118° |
| 2026-05-06 10:23 | 25.74122 | -75.44109 | 41055 ft | 464 kts | 118° |
| 2026-05-06 10:23 | 25.70484 | -75.38144 | 41050 ft | 464 kts | 118° |
| 2026-05-06 10:24 | 25.66868 | -75.32223 | 41038 ft | 464 kts | 118° |
| 2026-05-06 10:24 | 25.63277 | -75.26351 | 41046 ft | 463 kts | 118° |
| 2026-05-06 10:25 | 25.59658 | -75.20441 | 41038 ft | 462 kts | 118° |
| 2026-05-06 10:25 | 25.56057 | -75.14565 | 41050 ft | 462 kts | 118° |
| 2026-05-06 10:26 | 25.52451 | -75.08690 | 41042 ft | 462 kts | 118° |
| 2026-05-06 10:26 | 25.48844 | -75.02821 | 41041 ft | 462 kts | 118° |
| 2026-05-06 10:27 | 25.45227 | -74.96944 | 41057 ft | 461 kts | 118° |
| 2026-05-06 10:27 | 25.41624 | -74.91093 | 41054 ft | 461 kts | 118° |
| 2026-05-06 10:28 | 25.38012 | -74.85239 | 41056 ft | 462 kts | 118° |
| 2026-05-06 10:28 | 25.34389 | -74.79372 | 41058 ft | 462 kts | 118° |
| 2026-05-06 10:29 | 25.30765 | -74.73512 | 41042 ft | 463 kts | 118° |
| 2026-05-06 10:29 | 25.27120 | -74.67624 | 41051 ft | 463 kts | 118° |
| 2026-05-06 10:30 | 25.23484 | -74.61758 | 41060 ft | 463 kts | 118° |
| 2026-05-06 10:30 | 25.19821 | -74.55857 | 41053 ft | 464 kts | 118° |
| 2026-05-06 10:31 | 25.16164 | -74.49973 | 41058 ft | 465 kts | 118° |
| 2026-05-06 10:31 | 25.12516 | -74.44109 | 41068 ft | 465 kts | 118° |
| 2026-05-06 10:32 | 25.08861 | -74.38243 | 41075 ft | 465 kts | 118° |
| 2026-05-06 10:32 | 25.05194 | -74.32363 | 41061 ft | 466 kts | 118° |
| 2026-05-06 10:33 | 25.01520 | -74.26481 | 41063 ft | 466 kts | 118° |
| 2026-05-06 10:33 | 24.97830 | -74.20578 | 41058 ft | 466 kts | 118° |
| 2026-05-06 10:34 | 24.94170 | -74.14732 | 41053 ft | 466 kts | 118° |
| 2026-05-06 10:34 | 24.90475 | -74.08837 | 41053 ft | 467 kts | 118° |
| 2026-05-06 10:35 | 24.86780 | -74.02949 | 41058 ft | 466 kts | 118° |
| 2026-05-06 10:35 | 24.83109 | -73.97109 | 41060 ft | 464 kts | 118° |
| 2026-05-06 10:36 | 24.79445 | -73.91284 | 41063 ft | 463 kts | 118° |
| 2026-05-06 10:36 | 24.75787 | -73.85477 | 41072 ft | 462 kts | 118° |
| 2026-05-06 10:37 | 24.72143 | -73.79699 | 41074 ft | 462 kts | 118° |
| 2026-05-06 10:37 | 24.68467 | -73.73875 | 41069 ft | 461 kts | 118° |
| 2026-05-06 10:38 | 24.64803 | -73.68079 | 41067 ft | 461 kts | 118° |
| 2026-05-06 10:38 | 24.61143 | -73.62296 | 41048 ft | 461 kts | 118° |
| 2026-05-06 10:39 | 24.57477 | -73.56509 | 41056 ft | 461 kts | 118° |
| 2026-05-06 10:39 | 24.53751 | -73.50802 | 41054 ft | 462 kts | 120° |
| 2026-05-06 10:40 | 24.49977 | -73.45163 | 41055 ft | 462 kts | 120° |
| 2026-05-06 10:40 | 24.46182 | -73.39496 | 41058 ft | 461 kts | 120° |
| 2026-05-06 10:41 | 24.42379 | -73.33816 | 41060 ft | 461 kts | 120° |
| 2026-05-06 10:41 | 24.38564 | -73.28122 | 41057 ft | 461 kts | 121° |
| 2026-05-06 10:42 | 24.34797 | -73.22501 | 41066 ft | 460 kts | 121° |
| 2026-05-06 10:42 | 24.31007 | -73.16853 | 41061 ft | 460 kts | 120° |
| 2026-05-06 10:43 | 24.27216 | -73.11209 | 41057 ft | 460 kts | 121° |
| 2026-05-06 10:44 | 24.21534 | -73.02761 | 41066 ft | 460 kts | 121° |
| 2026-05-06 10:44 | 24.17737 | -72.97124 | 41076 ft | 460 kts | 121° |
| 2026-05-06 10:45 | 24.13942 | -72.91495 | 41077 ft | 460 kts | 121° |
| 2026-05-06 10:45 | 24.10150 | -72.85878 | 41068 ft | 460 kts | 121° |
| 2026-05-06 10:46 | 24.06348 | -72.80253 | 41064 ft | 460 kts | 121° |
| 2026-05-06 10:46 | 24.02531 | -72.74612 | 41069 ft | 460 kts | 121° |
| 2026-05-06 10:47 | 23.98696 | -72.68950 | 41083 ft | 461 kts | 121° |
| 2026-05-06 10:47 | 23.94883 | -72.63326 | 41077 ft | 461 kts | 121° |
| 2026-05-06 10:48 | 23.91085 | -72.57732 | 41069 ft | 461 kts | 121° |
| 2026-05-06 10:48 | 23.87248 | -72.52087 | 41063 ft | 460 kts | 121° |
| 2026-05-06 10:49 | 23.83446 | -72.46501 | 41060 ft | 459 kts | 121° |
| 2026-05-06 10:49 | 23.79653 | -72.40932 | 41070 ft | 458 kts | 121° |
| 2026-05-06 10:50 | 23.75852 | -72.35358 | 41066 ft | 457 kts | 122° |
| 2026-05-06 10:50 | 23.72060 | -72.29805 | 41060 ft | 456 kts | 122° |
| 2026-05-06 10:51 | 23.68257 | -72.24240 | 41066 ft | 455 kts | 122° |
| 2026-05-06 10:51 | 23.64461 | -72.18693 | 41071 ft | 454 kts | 122° |
| 2026-05-06 10:52 | 23.60692 | -72.13189 | 41069 ft | 453 kts | 122° |
| 2026-05-06 10:52 | 23.56924 | -72.07695 | 41072 ft | 452 kts | 122° |
| 2026-05-06 10:53 | 23.53171 | -72.02227 | 41065 ft | 452 kts | 123° |
| 2026-05-06 10:53 | 23.49400 | -71.96738 | 41077 ft | 451 kts | 122° |
| 2026-05-06 10:54 | 23.45655 | -71.91295 | 41075 ft | 451 kts | 122° |
| 2026-05-06 10:54 | 23.41875 | -71.85806 | 41074 ft | 451 kts | 122° |
| 2026-05-06 10:55 | 23.38116 | -71.80354 | 41071 ft | 450 kts | 123° |
| 2026-05-06 10:55 | 23.34359 | -71.74902 | 41077 ft | 450 kts | 122° |
| 2026-05-06 10:56 | 23.30624 | -71.69467 | 41077 ft | 450 kts | 123° |
| 2026-05-06 10:56 | 23.26858 | -71.63992 | 41070 ft | 450 kts | 123° |
| 2026-05-06 10:57 | 23.23079 | -71.58504 | 41073 ft | 450 kts | 123° |
| 2026-05-06 10:57 | 23.19334 | -71.53072 | 41075 ft | 450 kts | 123° |
| 2026-05-06 10:58 | 23.15598 | -71.47661 | 41072 ft | 450 kts | 123° |
| 2026-05-06 10:58 | 23.11821 | -71.42194 | 41069 ft | 450 kts | 123° |
| 2026-05-06 10:59 | 23.08061 | -71.36759 | 41071 ft | 450 kts | 123° |
| 2026-05-06 10:59 | 23.04287 | -71.31309 | 41075 ft | 450 kts | 123° |
| 2026-05-06 11:00 | 23.00538 | -71.25900 | 41068 ft | 450 kts | 123° |
| 2026-05-06 11:00 | 22.96753 | -71.20447 | 41069 ft | 449 kts | 123° |
| 2026-05-06 11:01 | 22.93017 | -71.15068 | 41070 ft | 449 kts | 123° |
| 2026-05-06 11:01 | 22.89259 | -71.09665 | 41061 ft | 448 kts | 123° |
| 2026-05-06 11:02 | 22.85477 | -71.04230 | 41070 ft | 447 kts | 124° |
| 2026-05-06 11:02 | 22.81745 | -70.98876 | 41071 ft | 446 kts | 124° |
| 2026-05-06 11:03 | 22.78014 | -70.93527 | 41077 ft | 445 kts | 124° |
| 2026-05-06 11:03 | 22.74279 | -70.88178 | 41072 ft | 444 kts | 124° |
| 2026-05-06 11:04 | 22.70555 | -70.82850 | 41072 ft | 444 kts | 124° |
| 2026-05-06 11:04 | 22.66818 | -70.77567 | 41073 ft | 444 kts | 125° |
| 2026-05-06 11:05 | 22.63012 | -70.72295 | 41071 ft | 443 kts | 125° |
| 2026-05-06 11:05 | 22.59225 | -70.67055 | 41070 ft | 443 kts | 125° |
| 2026-05-06 11:06 | 22.55430 | -70.61807 | 41072 ft | 443 kts | 125° |
| 2026-05-06 11:06 | 22.51621 | -70.56540 | 41078 ft | 443 kts | 126° |
| 2026-05-06 11:07 | 22.47827 | -70.51299 | 41074 ft | 443 kts | 126° |
| 2026-05-06 11:07 | 22.44027 | -70.46053 | 41068 ft | 443 kts | 126° |
| 2026-05-06 11:08 | 22.40222 | -70.40807 | 41073 ft | 443 kts | 126° |
| 2026-05-06 11:08 | 22.36438 | -70.35593 | 41070 ft | 443 kts | 126° |
| 2026-05-06 11:09 | 22.32600 | -70.30310 | 41073 ft | 443 kts | 126° |
| 2026-05-06 11:09 | 22.28811 | -70.25101 | 41069 ft | 442 kts | 127° |
| 2026-05-06 11:10 | 22.25007 | -70.19875 | 41071 ft | 442 kts | 126° |
| 2026-05-06 11:10 | 22.21192 | -70.14639 | 41069 ft | 442 kts | 127° |
| 2026-05-06 11:11 | 22.17404 | -70.09446 | 41067 ft | 441 kts | 127° |
| 2026-05-06 11:11 | 22.13615 | -70.04256 | 41066 ft | 441 kts | 127° |
| 2026-05-06 11:12 | 22.09793 | -69.99026 | 41070 ft | 441 kts | 127° |
| 2026-05-06 11:12 | 22.06005 | -69.93848 | 41074 ft | 440 kts | 127° |
| 2026-05-06 11:13 | 22.02223 | -69.88683 | 41074 ft | 440 kts | 127° |
| 2026-05-06 11:13 | 21.98428 | -69.83506 | 41072 ft | 440 kts | 127° |
| 2026-05-06 11:14 | 21.94620 | -69.78316 | 41072 ft | 440 kts | 127° |
| 2026-05-06 11:14 | 21.90810 | -69.73128 | 41074 ft | 440 kts | 127° |
| 2026-05-06 11:15 | 21.86996 | -69.67941 | 41074 ft | 440 kts | 127° |
| 2026-05-06 11:15 | 21.83216 | -69.62803 | 41075 ft | 439 kts | 127° |
| 2026-05-06 11:16 | 21.79389 | -69.57606 | 41076 ft | 439 kts | 127° |
| 2026-05-06 11:16 | 21.75598 | -69.52465 | 41081 ft | 438 kts | 127° |
| 2026-05-06 11:17 | 21.71815 | -69.47337 | 41085 ft | 438 kts | 127° |
| 2026-05-06 11:17 | 21.68031 | -69.42214 | 41081 ft | 438 kts | 127° |
| 2026-05-06 11:18 | 21.64250 | -69.37101 | 41083 ft | 437 kts | 128° |
| 2026-05-06 11:18 | 21.60486 | -69.32014 | 41089 ft | 437 kts | 128° |
| 2026-05-06 11:19 | 21.56692 | -69.26892 | 41091 ft | 436 kts | 128° |
| 2026-05-06 11:19 | 21.52904 | -69.21782 | 41090 ft | 436 kts | 128° |
| 2026-05-06 11:20 | 21.49139 | -69.16708 | 41091 ft | 435 kts | 128° |
| 2026-05-06 11:20 | 21.45358 | -69.11619 | 41092 ft | 435 kts | 128° |
| 2026-05-06 11:21 | 21.41578 | -69.06535 | 41090 ft | 435 kts | 128° |
| 2026-05-06 11:21 | 21.37807 | -69.01467 | 41092 ft | 435 kts | 128° |
| 2026-05-06 11:22 | 21.34023 | -68.96387 | 41093 ft | 435 kts | 128° |
| 2026-05-06 11:22 | 21.30249 | -68.91325 | 41092 ft | 435 kts | 128° |
| 2026-05-06 11:23 | 21.26464 | -68.86253 | 41094 ft | 435 kts | 128° |
| 2026-05-06 11:23 | 21.22681 | -68.81188 | 41089 ft | 435 kts | 128° |
| 2026-05-06 11:24 | 21.18902 | -68.76132 | 41089 ft | 435 kts | 128° |
| 2026-05-06 11:24 | 21.15117 | -68.71074 | 41092 ft | 435 kts | 128° |
| 2026-05-06 11:25 | 21.11323 | -68.66009 | 41090 ft | 435 kts | 129° |
| 2026-05-06 11:25 | 21.07537 | -68.60958 | 41092 ft | 435 kts | 129° |
| 2026-05-06 11:26 | 21.03756 | -68.55919 | 41093 ft | 436 kts | 129° |
| 2026-05-06 11:26 | 20.99941 | -68.50839 | 41096 ft | 436 kts | 129° |
| 2026-05-06 11:27 | 20.96157 | -68.45804 | 41097 ft | 436 kts | 129° |
| 2026-05-06 11:27 | 20.92341 | -68.40732 | 41098 ft | 437 kts | 129° |
| 2026-05-06 11:28 | 20.88521 | -68.35658 | 41095 ft | 437 kts | 129° |
| 2026-05-06 11:28 | 20.84704 | -68.30594 | 41090 ft | 436 kts | 129° |
| 2026-05-06 11:29 | 20.80899 | -68.25549 | 41093 ft | 436 kts | 129° |
| 2026-05-06 11:29 | 20.77099 | -68.20516 | 41094 ft | 436 kts | 130° |
| 2026-05-06 11:30 | 20.73294 | -68.15480 | 41093 ft | 435 kts | 130° |
| 2026-05-06 11:30 | 20.69212 | -68.10774 | 41086 ft | 434 kts | 139° |
| 2026-05-06 11:31 | 20.64702 | -68.06508 | 41086 ft | 433 kts | 140° |
| 2026-05-06 11:31 | 20.60144 | -68.02251 | 41087 ft | 433 kts | 141° |
| 2026-05-06 11:32 | 20.55620 | -67.98021 | 41088 ft | 433 kts | 141° |
| 2026-05-06 11:32 | 20.51097 | -67.93791 | 41088 ft | 433 kts | 141° |
| 2026-05-06 11:33 | 20.46549 | -67.89538 | 41093 ft | 433 kts | 141° |
| 2026-05-06 11:33 | 20.42042 | -67.85325 | 41087 ft | 433 kts | 141° |
| 2026-05-06 11:34 | 20.37508 | -67.81089 | 41092 ft | 433 kts | 141° |
| 2026-05-06 11:34 | 20.32980 | -67.76861 | 41091 ft | 433 kts | 141° |
| 2026-05-06 11:35 | 20.28427 | -67.72613 | 41093 ft | 433 kts | 141° |
| 2026-05-06 11:35 | 20.23897 | -67.68391 | 41092 ft | 433 kts | 141° |
| 2026-05-06 11:36 | 20.19349 | -67.64156 | 41092 ft | 434 kts | 141° |
| 2026-05-06 11:36 | 20.14823 | -67.59943 | 41090 ft | 434 kts | 141° |
| 2026-05-06 11:37 | 20.10276 | -67.55714 | 41089 ft | 434 kts | 141° |
| 2026-05-06 11:37 | 20.05721 | -67.51482 | 41090 ft | 434 kts | 141° |
| 2026-05-06 11:38 | 20.01148 | -67.47236 | 41089 ft | 434 kts | 142° |
| 2026-05-06 11:38 | 19.96589 | -67.43012 | 41088 ft | 434 kts | 142° |
| 2026-05-06 11:39 | 19.92050 | -67.38813 | 41089 ft | 434 kts | 142° |
| 2026-05-06 11:39 | 19.87442 | -67.34553 | 41085 ft | 434 kts | 142° |
| 2026-05-06 11:40 | 19.82882 | -67.30342 | 41089 ft | 433 kts | 142° |
| 2026-05-06 11:40 | 19.78357 | -67.26165 | 41091 ft | 433 kts | 142° |
| 2026-05-06 11:41 | 19.73808 | -67.21969 | 41083 ft | 432 kts | 142° |
| 2026-05-06 11:41 | 19.69298 | -67.17814 | 41090 ft | 431 kts | 142° |
| 2026-05-06 11:42 | 19.64778 | -67.13652 | 41086 ft | 430 kts | 142° |
| 2026-05-06 11:42 | 19.60230 | -67.09467 | 41085 ft | 430 kts | 142° |
| 2026-05-06 11:43 | 19.55715 | -67.05315 | 41087 ft | 429 kts | 142° |
| 2026-05-06 11:43 | 19.51195 | -67.01163 | 41085 ft | 429 kts | 142° |
| 2026-05-06 11:44 | 19.44428 | -66.94951 | 41094 ft | 428 kts | 142° |
| 2026-05-06 11:44 | 19.39947 | -66.90842 | 41081 ft | 428 kts | 142° |
| 2026-05-06 11:45 | 19.35433 | -66.86706 | 41092 ft | 428 kts | 142° |
| 2026-05-06 11:45 | 19.30943 | -66.82596 | 41093 ft | 427 kts | 142° |
| 2026-05-06 11:46 | 19.26458 | -66.78494 | 41086 ft | 427 kts | 142° |
| 2026-05-06 11:46 | 19.21953 | -66.74374 | 41084 ft | 427 kts | 142° |
| 2026-05-06 11:47 | 19.17468 | -66.70277 | 41084 ft | 426 kts | 142° |
| 2026-05-06 11:47 | 19.12982 | -66.66183 | 41088 ft | 426 kts | 142° |
| 2026-05-06 11:48 | 19.08480 | -66.62076 | 41089 ft | 426 kts | 142° |
| 2026-05-06 11:48 | 19.04017 | -66.58008 | 41084 ft | 426 kts | 143° |
| 2026-05-06 11:49 | 18.99517 | -66.53909 | 41091 ft | 425 kts | 143° |
| 2026-05-06 11:49 | 18.95042 | -66.49811 | 41087 ft | 426 kts | 140° |
| 2026-05-06 11:50 | 18.91427 | -66.44807 | 41097 ft | 433 kts | 122° |
| 2026-05-06 11:50 | 18.88561 | -66.39242 | 41091 ft | 434 kts | 120° |
| 2026-05-06 11:51 | 18.85728 | -66.33554 | 41089 ft | 433 kts | 120° |
| 2026-05-06 11:51 | 18.82939 | -66.27941 | 41089 ft | 432 kts | 120° |
| 2026-05-06 11:52 | 18.80141 | -66.22309 | 41088 ft | 432 kts | 120° |
| 2026-05-06 11:52 | 18.77367 | -66.16727 | 41088 ft | 431 kts | 120° |
| 2026-05-06 11:53 | 18.74578 | -66.11119 | 41088 ft | 431 kts | 121° |
| 2026-05-06 11:53 | 18.71807 | -66.05554 | 41093 ft | 430 kts | 121° |
| 2026-05-06 11:54 | 18.69023 | -65.99965 | 41093 ft | 430 kts | 121° |
| 2026-05-06 11:54 | 18.66234 | -65.94373 | 41099 ft | 430 kts | 121° |
| 2026-05-06 11:55 | 18.63465 | -65.88825 | 41097 ft | 429 kts | 121° |
| 2026-05-06 11:55 | 18.60678 | -65.83247 | 41098 ft | 429 kts | 121° |
| 2026-05-06 11:56 | 18.57903 | -65.77696 | 41098 ft | 429 kts | 121° |
| 2026-05-06 11:56 | 18.55124 | -65.72144 | 41096 ft | 429 kts | 121° |
| 2026-05-06 11:57 | 18.52340 | -65.66586 | 41093 ft | 429 kts | 121° |
| 2026-05-06 11:57 | 18.49557 | -65.61034 | 41090 ft | 429 kts | 121° |
| 2026-05-06 11:58 | 18.46781 | -65.55501 | 41092 ft | 429 kts | 121° |
| 2026-05-06 11:58 | 18.44047 | -65.50056 | 41090 ft | 429 kts | 121° |
| 2026-05-06 11:59 | 18.41254 | -65.44501 | 41092 ft | 430 kts | 121° |
| 2026-05-06 11:59 | 18.38458 | -65.38944 | 41090 ft | 430 kts | 121° |
| 2026-05-06 12:00 | 18.35655 | -65.33379 | 41090 ft | 430 kts | 122° |
| 2026-05-06 12:00 | 18.32869 | -65.27853 | 41093 ft | 430 kts | 122° |
| 2026-05-06 12:01 | 18.30059 | -65.22282 | 41093 ft | 429 kts | 122° |
| 2026-05-06 12:01 | 18.27261 | -65.16741 | 41090 ft | 429 kts | 122° |
| 2026-05-06 12:02 | 18.24467 | -65.11213 | 41099 ft | 428 kts | 122° |
| 2026-05-06 12:02 | 18.21672 | -65.05689 | 41099 ft | 428 kts | 122° |
| 2026-05-06 12:03 | 18.18866 | -65.00146 | 41099 ft | 428 kts | 123° |
| 2026-05-06 12:03 | 18.16071 | -64.94630 | 41098 ft | 428 kts | 122° |
| 2026-05-06 12:04 | 18.13271 | -64.89111 | 41093 ft | 429 kts | 122° |
| 2026-05-06 12:04 | 18.10451 | -64.83557 | 41095 ft | 429 kts | 122° |
| 2026-05-06 12:05 | 18.07650 | -64.78046 | 41097 ft | 429 kts | 123° |
| 2026-05-06 12:05 | 18.04831 | -64.72505 | 40776 ft | 434 kts | 122° |
| 2026-05-06 12:06 | 18.03411 | -64.69717 | 40155 ft | 436 kts | 122° |
| 2026-05-06 12:06 | 18.01989 | -64.66926 | 39584 ft | 435 kts | 122° |
| 2026-05-06 12:06 | 18.00569 | -64.64136 | 38959 ft | 436 kts | 122° |
| 2026-05-06 12:06 | 17.99132 | -64.61316 | 38344 ft | 436 kts | 122° |
| 2026-05-06 12:07 | 17.97712 | -64.58530 | 37757 ft | 436 kts | 122° |
| 2026-05-06 12:07 | 17.96275 | -64.55713 | 37167 ft | 435 kts | 122° |
| 2026-05-06 12:07 | 17.94859 | -64.52937 | 36589 ft | 434 kts | 122° |
| 2026-05-06 12:07 | 17.93432 | -64.50141 | 36007 ft | 432 kts | 122° |
| 2026-05-06 12:08 | 17.92028 | -64.47392 | 35433 ft | 430 kts | 122° |
| 2026-05-06 12:08 | 17.90615 | -64.44624 | 34855 ft | 428 kts | 122° |
| 2026-05-06 12:08 | 17.89202 | -64.41859 | 34273 ft | 426 kts | 122° |
| 2026-05-06 12:08 | 17.87814 | -64.39146 | 33707 ft | 424 kts | 122° |
| 2026-05-06 12:09 | 17.86432 | -64.36445 | 33139 ft | 422 kts | 122° |
| 2026-05-06 12:09 | 17.85038 | -64.33721 | 32588 ft | 420 kts | 122° |
| 2026-05-06 12:09 | 17.83658 | -64.31025 | 32076 ft | 418 kts | 122° |
| 2026-05-06 12:09 | 17.82296 | -64.28367 | 31568 ft | 416 kts | 121° |
| 2026-05-06 12:10 | 17.80926 | -64.25693 | 31057 ft | 414 kts | 121° |
| 2026-05-06 12:10 | 17.79567 | -64.23043 | 30549 ft | 412 kts | 121° |
| 2026-05-06 12:10 | 17.78221 | -64.20419 | 30044 ft | 411 kts | 121° |
| 2026-05-06 12:10 | 17.76873 | -64.17793 | 29533 ft | 409 kts | 121° |
| 2026-05-06 12:11 | 17.75533 | -64.15184 | 29031 ft | 408 kts | 120° |
| 2026-05-06 12:11 | 17.74198 | -64.12585 | 28539 ft | 407 kts | 120° |
| 2026-05-06 12:11 | 17.72856 | -64.09972 | 28074 ft | 405 kts | 120° |
| 2026-05-06 12:11 | 17.71533 | -64.07399 | 27610 ft | 403 kts | 120° |
| 2026-05-06 12:12 | 17.70198 | -64.04803 | 27146 ft | 401 kts | 119° |
| 2026-05-06 12:12 | 17.68882 | -64.02245 | 26684 ft | 400 kts | 119° |
| 2026-05-06 12:12 | 17.67572 | -63.99699 | 26222 ft | 399 kts | 118° |
| 2026-05-06 12:12 | 17.66258 | -63.97147 | 25756 ft | 398 kts | 118° |
| 2026-05-06 12:13 | 17.64938 | -63.94585 | 25290 ft | 396 kts | 118° |
| 2026-05-06 12:13 | 17.63635 | -63.92056 | 24826 ft | 395 kts | 117° |
| 2026-05-06 12:13 | 17.62336 | -63.89536 | 24369 ft | 394 kts | 117° |
| 2026-05-06 12:13 | 17.61040 | -63.87023 | 23910 ft | 393 kts | 117° |
| 2026-05-06 12:14 | 17.59743 | -63.84509 | 23452 ft | 391 kts | 117° |
| 2026-05-06 12:14 | 17.58463 | -63.82029 | 22993 ft | 389 kts | 116° |
| 2026-05-06 12:14 | 17.57169 | -63.79523 | 22529 ft | 387 kts | 116° |
| 2026-05-06 12:14 | 17.55898 | -63.77061 | 22077 ft | 384 kts | 116° |
| 2026-05-06 12:15 | 17.54639 | -63.74625 | 21613 ft | 380 kts | 116° |
| 2026-05-06 12:15 | 17.53386 | -63.72202 | 21143 ft | 376 kts | 116° |
| 2026-05-06 12:15 | 17.52149 | -63.69809 | 20672 ft | 372 kts | 116° |
| 2026-05-06 12:15 | 17.50940 | -63.67456 | 20203 ft | 368 kts | 115° |
| 2026-05-06 12:16 | 17.50117 | -63.64966 | 19746 ft | 361 kts | 101° |
| 2026-05-06 12:16 | 17.49516 | -63.62418 | 19271 ft | 357 kts | 101° |
| 2026-05-06 12:16 | 17.48944 | -63.59914 | 18796 ft | 352 kts | 101° |
| 2026-05-06 12:16 | 17.48385 | -63.57442 | 18321 ft | 348 kts | 101° |
| 2026-05-06 12:17 | 17.47833 | -63.55001 | 17849 ft | 345 kts | 101° |
| 2026-05-06 12:17 | 17.47286 | -63.52577 | 17370 ft | 342 kts | 101° |
| 2026-05-06 12:17 | 17.46744 | -63.50174 | 16880 ft | 339 kts | 101° |
| 2026-05-06 12:17 | 17.46199 | -63.47766 | 16389 ft | 337 kts | 101° |
| 2026-05-06 12:18 | 17.45662 | -63.45388 | 15903 ft | 335 kts | 101° |
| 2026-05-06 12:18 | 17.45127 | -63.43026 | 15418 ft | 333 kts | 102° |
| 2026-05-06 12:18 | 17.44603 | -63.40707 | 14994 ft | 331 kts | 102° |
| 2026-05-06 12:18 | 17.44072 | -63.38366 | 14579 ft | 330 kts | 102° |
| 2026-05-06 12:19 | 17.43540 | -63.36018 | 14168 ft | 329 kts | 102° |
| 2026-05-06 12:19 | 17.43014 | -63.33696 | 13759 ft | 327 kts | 102° |
| 2026-05-06 12:19 | 17.42492 | -63.31397 | 13351 ft | 326 kts | 102° |
| 2026-05-06 12:19 | 17.41970 | -63.29100 | 12949 ft | 324 kts | 103° |
| 2026-05-06 12:20 | 17.41454 | -63.26823 | 12545 ft | 320 kts | 103° |
| 2026-05-06 12:20 | 17.40940 | -63.24565 | 12138 ft | 317 kts | 103° |
| 2026-05-06 12:20 | 17.40432 | -63.22330 | 11732 ft | 314 kts | 103° |
| 2026-05-06 12:20 | 17.39933 | -63.20140 | 11332 ft | 311 kts | 103° |
| 2026-05-06 12:21 | 17.39437 | -63.17957 | 10929 ft | 308 kts | 103° |
| 2026-05-06 12:21 | 17.38942 | -63.15785 | 10522 ft | 304 kts | 103° |
| 2026-05-06 12:21 | 17.38456 | -63.13654 | 10115 ft | 300 kts | 103° |
| 2026-05-06 12:21 | 17.37978 | -63.11557 | 9712 ft | 295 kts | 103° |
| 2026-05-06 12:22 | 17.37508 | -63.09497 | 9303 ft | 290 kts | 103° |
| 2026-05-06 12:22 | 17.37041 | -63.07451 | 8887 ft | 285 kts | 103° |
| 2026-05-06 12:22 | 17.36585 | -63.05455 | 8482 ft | 282 kts | 103° |
| 2026-05-06 12:22 | 17.36128 | -63.03464 | 8080 ft | 278 kts | 103° |
| 2026-05-06 12:23 | 17.35632 | -63.01546 | 7712 ft | 275 kts | 110° |
| 2026-05-06 12:23 | 17.34436 | -63.00008 | 7347 ft | 275 kts | 141° |
| 2026-05-06 12:23 | 17.32807 | -62.98972 | 7001 ft | 273 kts | 149° |
| 2026-05-06 12:23 | 17.31120 | -62.98087 | 6645 ft | 271 kts | 152° |
| 2026-05-06 12:24 | 17.29392 | -62.97235 | 6285 ft | 270 kts | 152° |
| 2026-05-06 12:24 | 17.27714 | -62.96401 | 5927 ft | 267 kts | 149° |
| 2026-05-06 12:24 | 17.26140 | -62.95388 | 5573 ft | 264 kts | 145° |
| 2026-05-06 12:24 | 17.24609 | -62.94341 | 5212 ft | 263 kts | 144° |
| 2026-05-06 12:25 | 17.23071 | -62.93273 | 4849 ft | 261 kts | 144° |
| 2026-05-06 12:25 | 17.21662 | -62.92115 | 4456 ft | 255 kts | 128° |
| 2026-05-06 12:25 | 17.21041 | -62.90449 | 4103 ft | 249 kts | 96° |
| 2026-05-06 12:25 | 17.21351 | -62.88692 | 3755 ft | 246 kts | 71° |
| 2026-05-06 12:26 | 17.22051 | -62.87080 | 3425 ft | 242 kts | 65° |
| 2026-05-06 12:26 | 17.22840 | -62.85572 | 3127 ft | 233 kts | 63° |
| 2026-05-06 12:26 | 17.23652 | -62.84121 | 2809 ft | 227 kts | 62° |
| 2026-05-06 12:26 | 17.24433 | -62.82702 | 2494 ft | 222 kts | 63° |
| 2026-05-06 12:27 | 17.25176 | -62.81327 | 2288 ft | 213 kts | 62° |
| 2026-05-06 12:27 | 17.25956 | -62.80021 | 1995 ft | 210 kts | 59° |
| 2026-05-06 12:27 | 17.26753 | -62.78766 | 1674 ft | 205 kts | 59° |
| 2026-05-06 12:27 | 17.27532 | -62.77538 | 1369 ft | 195 kts | 59° |
| 2026-05-06 12:28 | 17.28210 | -62.76470 | 1143 ft | 160 kts | 59° |
| 2026-05-06 12:28 | 17.28763 | -62.75597 | 940 ft | 119 kts | 59° |
| 2026-05-06 12:28 | 17.29188 | -62.74925 | 700 ft | 101 kts | 60° |
| 2026-05-06 12:28 | 17.29553 | -62.74339 | 539 ft | 94 kts | 59° |
| 2026-05-06 12:29 | 17.29917 | -62.73760 | 413 ft | 96 kts | 58° |
| 2026-05-06 12:29 | 17.30293 | -62.73174 | 288 ft | 99 kts | 58° |
| 2026-05-06 12:29 | 17.30676 | -62.72571 | 172 ft | 98 kts | 59° |
| 2026-05-06 12:29 | 17.30996 | -62.72064 | 163 ft | 51 kts | 58° |
| 2026-05-06 12:30 | 17.31051 | -62.71867 | 161 ft | 18 kts | 76° |
| 2026-05-06 12:30 | 17.31070 | -62.71736 | 159 ft | 15 kts | 85° |
| 2026-05-06 12:30 | 17.31027 | -62.71707 | 158 ft | 8 kts | 225° |
| 2026-05-06 12:30 | 17.30989 | -62.71764 | 159 ft | 11 kts | 239° |
| 2026-05-06 12:31 | 17.30938 | -62.71843 | 159 ft | 14 kts | 237° |
| 2026-05-06 12:31 | 17.30901 | -62.71827 | 159 ft | 6 kts | 114° |
| 2026-05-06 12:31 | 17.30891 | -62.71820 | 159 ft | 2 kts | 145° |
| 2026-05-06 12:31 | 17.30885 | -62.71816 | 159 ft | 0 kts | 146° |